Time;durP1;ratioP1;P1;durP2;ratioP2;P2;SDS_P1;SDS_P2;PMS_P1;PMS_P2;Temp;Humidity;BMP_temperature;BMP_pressure;BME280_temperature;BME280_humidity;BME280_pressure;Samples;Min_cycle;Max_cycle;Signal;HPM_P1;HPM_P2
2021/09/21 00:01:13;0.00;0.00;0.62;0.00;0.00;0.62;2.83;2.20;;;26.20;31.10;;;;;;2249467;61;20368;-63
2021/09/21 00:03:57;0.00;0.00;0.62;0.00;0.00;0.62;2.93;2.50;;;26.20;31.10;;;;;;2249558;61;20361;-62
2021/09/21 00:06:43;0.00;0.00;0.62;0.00;0.00;0.62;2.83;2.13;;;26.20;31.20;;;;;;2249638;61;20412;-64
2021/09/21 00:09:28;0.00;0.00;0.62;0.00;0.00;0.62;2.87;2.20;;;26.20;31.20;;;;;;2249780;61;20602;-63
2021/09/21 00:12:12;0.00;0.00;0.62;0.00;0.00;0.62;3.00;2.60;;;26.20;31.20;;;;;;2249442;61;20400;-63
2021/09/21 00:14:57;0.00;0.00;0.62;0.00;0.00;0.62;2.67;2.47;;;26.20;31.20;;;;;;2249969;61;20457;-62
2021/09/21 00:17:43;0.00;0.00;0.62;0.00;0.00;0.62;3.60;2.50;;;26.20;31.20;;;;;;2249694;61;20388;-62
2021/09/21 00:20:27;0.00;0.00;0.62;0.00;0.00;0.62;2.60;2.10;;;26.10;31.10;;;;;;2249533;61;20364;-63
2021/09/21 00:23:13;0.00;0.00;0.62;0.00;0.00;0.62;2.87;2.50;;;26.10;31.20;;;;;;2249693;61;20372;-63
2021/09/21 00:25:58;0.00;0.00;0.62;0.00;0.00;0.62;2.50;2.27;;;26.10;31.20;;;;;;2249823;61;20388;-64
2021/09/21 00:28:43;0.00;0.00;0.62;0.00;0.00;0.62;2.47;2.03;;;26.10;31.20;;;;;;2249671;61;20700;-65
2021/09/21 00:31:37;0.00;0.00;0.62;0.00;0.00;0.62;3.10;2.77;;;26.10;31.20;;;;;;2249247;61;20365;-62
2021/09/21 00:34:26;0.00;0.00;0.62;0.00;0.00;0.62;2.80;2.20;;;26.10;31.20;;;;;;2249366;61;20578;-63
2021/09/21 00:37:13;0.00;0.00;0.62;0.00;0.00;0.62;3.60;2.10;;;26.00;31.10;;;;;;2249836;61;20392;-62
2021/09/21 00:39:59;0.00;0.00;0.62;0.00;0.00;0.62;2.90;2.60;;;26.00;31.10;;;;;;2249668;61;20357;-63
2021/09/21 00:42:45;0.00;0.00;0.62;0.00;0.00;0.62;2.90;2.10;;;26.00;31.10;;;;;;2249542;61;20381;-61
2021/09/21 00:45:31;0.00;0.00;0.62;0.00;0.00;0.62;2.77;2.47;;;26.00;31.10;;;;;;2249512;61;20785;-63
2021/09/21 00:48:16;0.00;0.00;0.62;0.00;0.00;0.62;2.47;2.27;;;26.00;31.10;;;;;;2249442;61;20379;-61
2021/09/21 00:51:00;0.00;0.00;0.62;0.00;0.00;0.62;3.10;2.60;;;26.00;31.10;;;;;;2249469;61;20360;-63
2021/09/21 00:53:45;0.00;0.00;0.62;0.00;0.00;0.62;2.63;2.30;;;26.00;31.00;;;;;;2249564;61;20372;-62
2021/09/21 00:56:31;0.00;0.00;0.62;0.00;0.00;0.62;3.13;2.30;;;26.00;31.00;;;;;;2249449;61;20400;-63
2021/09/21 00:59:15;0.00;0.00;0.62;0.00;0.00;0.62;2.10;1.80;;;26.00;31.00;;;;;;2249855;61;20373;-63
2021/09/21 01:02:00;0.00;0.00;0.62;0.00;0.00;0.62;2.43;2.20;;;26.00;31.00;;;;;;2249688;61;20361;-62
2021/09/21 01:04:44;0.00;0.00;0.62;0.00;0.00;0.62;2.97;2.40;;;26.00;31.10;;;;;;2249337;61;20505;-63
2021/09/21 01:07:29;0.00;0.00;0.62;0.00;0.00;0.62;2.60;2.30;;;26.00;31.00;;;;;;2249631;61;20728;-63
2021/09/21 01:10:17;0.00;0.00;0.62;0.00;0.00;0.62;5.00;2.07;;;26.00;31.00;;;;;;2249713;61;20396;-62
2021/09/21 01:13:02;0.00;0.00;0.62;0.00;0.00;0.62;2.57;2.00;;;25.90;30.90;;;;;;2249267;61;20717;-62
2021/09/21 01:15:47;0.00;0.00;0.62;0.00;0.00;0.62;2.53;1.93;;;25.90;31.00;;;;;;2249540;61;20622;-62
2021/09/21 01:18:33;0.00;0.00;0.62;0.00;0.00;0.62;3.10;2.37;;;25.90;31.00;;;;;;2249178;61;20401;-64
2021/09/21 01:21:18;0.00;0.00;0.62;0.00;0.00;0.62;2.70;2.23;;;25.90;31.00;;;;;;2249887;61;20433;-62
2021/09/21 01:24:04;0.00;0.00;0.62;0.00;0.00;0.62;3.07;2.77;;;25.90;31.00;;;;;;2249424;61;20365;-61
2021/09/21 01:26:49;0.00;0.00;0.62;0.00;0.00;0.62;3.00;2.23;;;25.90;30.90;;;;;;2249198;61;20388;-61
2021/09/21 01:29:35;0.00;0.00;0.62;0.00;0.00;0.62;3.20;2.60;;;25.80;30.80;;;;;;2249672;61;20364;-63
2021/09/21 01:32:21;0.00;0.00;0.62;0.00;0.00;0.62;3.60;2.57;;;25.90;30.90;;;;;;2249546;61;20760;-63
2021/09/21 01:35:07;0.00;0.00;0.62;0.00;0.00;0.62;2.53;2.33;;;25.80;30.80;;;;;;2249121;61;20380;-61
2021/09/21 01:37:52;0.00;0.00;0.62;0.00;0.00;0.62;2.50;1.80;;;25.80;30.80;;;;;;2249593;61;20388;-63
2021/09/21 01:40:38;0.00;0.00;0.62;0.00;0.00;0.62;2.70;2.50;;;25.80;30.80;;;;;;2249330;61;20562;-63
2021/09/21 01:43:23;0.00;0.00;0.62;0.00;0.00;0.62;2.50;2.07;;;25.80;30.80;;;;;;2249820;61;20369;-61
2021/09/21 01:46:07;0.00;0.00;0.62;0.00;0.00;0.62;3.60;2.50;;;25.80;30.80;;;;;;2249256;61;20682;-63
2021/09/21 01:48:52;0.00;0.00;0.62;0.00;0.00;0.62;2.53;2.23;;;25.80;30.90;;;;;;2249250;61;20360;-60
2021/09/21 01:51:40;0.00;0.00;0.62;0.00;0.00;0.62;3.13;2.83;;;25.80;30.80;;;;;;2249531;61;20400;-62
2021/09/21 01:54:46;0.00;0.00;0.62;0.00;0.00;0.62;2.40;2.20;;;25.80;30.80;;;;;;2249305;61;20589;-62
2021/09/21 02:00:36;0.00;0.00;0.62;0.00;0.00;0.62;2.20;1.93;;;25.70;30.80;;;;;;2249956;61;20489;-62
2021/09/21 02:03:21;0.00;0.00;0.62;0.00;0.00;0.62;2.83;2.50;;;25.70;30.80;;;;;;2249912;61;20364;-63
2021/09/21 02:06:06;0.00;0.00;0.62;0.00;0.00;0.62;3.07;2.40;;;25.80;30.90;;;;;;2250257;61;20385;-62
2021/09/21 02:08:50;0.00;0.00;0.62;0.00;0.00;0.62;3.20;2.90;;;25.70;30.80;;;;;;2250053;61;20400;-62
2021/09/21 02:11:36;0.00;0.00;0.62;0.00;0.00;0.62;3.70;2.07;;;25.70;30.80;;;;;;2249853;61;20399;-63
2021/09/21 02:14:23;0.00;0.00;0.62;0.00;0.00;0.62;4.60;2.87;;;25.70;30.80;;;;;;2250083;61;20368;-63
2021/09/21 02:17:08;0.00;0.00;0.62;0.00;0.00;0.62;3.00;2.50;;;25.70;30.80;;;;;;2249976;61;20489;-63
2021/09/21 02:19:52;0.00;0.00;0.62;0.00;0.00;0.62;2.90;2.67;;;25.70;30.90;;;;;;2249985;61;20368;-62
2021/09/21 02:22:37;0.00;0.00;0.62;0.00;0.00;0.62;2.20;2.00;;;25.70;30.90;;;;;;2250160;61;20416;-63
2021/09/21 02:25:21;0.00;0.00;0.62;0.00;0.00;0.62;2.33;2.10;;;25.70;31.00;;;;;;2249716;61;20384;-62
2021/09/21 02:28:06;0.00;0.00;0.62;0.00;0.00;0.62;2.47;2.27;;;25.70;31.00;;;;;;2250079;61;20447;-62
2021/09/21 02:30:52;0.00;0.00;0.62;0.00;0.00;0.62;3.03;2.60;;;25.70;31.00;;;;;;2249944;61;20380;-63
2021/09/21 02:33:36;0.00;0.00;0.62;0.00;0.00;0.62;2.80;2.27;;;25.60;30.90;;;;;;2249793;61;20366;-62
2021/09/21 02:36:21;0.00;0.00;0.62;0.00;0.00;0.62;3.03;2.60;;;25.60;30.90;;;;;;2250079;61;20400;-63
2021/09/21 02:39:05;0.00;0.00;0.62;0.00;0.00;0.62;3.50;2.90;;;25.60;30.90;;;;;;2249903;61;20580;-61
2021/09/21 02:41:50;0.00;0.00;0.62;0.00;0.00;0.62;3.03;2.73;;;25.60;31.00;;;;;;2249980;61;20448;-61
2021/09/21 02:44:36;0.00;0.00;0.62;0.00;0.00;0.62;3.13;2.83;;;25.50;30.90;;;;;;2249940;61;20430;-61
2021/09/21 02:47:21;0.00;0.00;0.62;0.00;0.00;0.62;2.30;2.10;;;25.60;31.00;;;;;;2249679;61;20705;-62
2021/09/21 02:50:09;0.00;0.00;0.62;0.00;0.00;0.62;3.20;2.57;;;25.60;31.00;;;;;;2250426;61;20385;-62
2021/09/21 02:52:54;0.00;0.00;0.62;0.00;0.00;0.62;2.60;2.40;;;25.60;31.10;;;;;;2249774;61;20721;-61
2021/09/21 02:55:38;0.00;0.00;0.62;0.00;0.00;0.62;3.07;2.77;;;25.50;31.00;;;;;;2249855;61;20385;-63
2021/09/21 02:58:23;0.00;0.00;0.62;0.00;0.00;0.62;3.00;2.47;;;25.50;31.00;;;;;;2250017;61;20574;-62
2021/09/21 03:01:08;0.00;0.00;0.62;0.00;0.00;0.62;2.43;2.20;;;25.50;31.00;;;;;;2249881;61;20368;-62
2021/09/21 03:03:58;0.00;0.00;0.62;0.00;0.00;0.62;3.20;2.60;;;25.50;31.00;;;;;;2249769;61;20400;-61
2021/09/21 03:06:48;0.00;0.00;0.62;0.00;0.00;0.62;3.20;2.40;;;25.50;31.00;;;;;;2249854;61;20379;-61
2021/09/21 03:18:37;0.00;0.00;0.62;0.00;0.00;0.62;2.77;2.47;;;25.40;30.90;;;;;;2249755;61;20369;-62
2021/09/21 03:21:24;0.00;0.00;0.62;0.00;0.00;0.62;4.57;3.13;;;25.40;30.90;;;;;;2249887;61;20365;-63
2021/09/21 03:24:08;0.00;0.00;0.62;0.00;0.00;0.62;2.83;2.53;;;25.40;30.90;;;;;;2249903;61;20438;-62
2021/09/21 03:26:53;0.00;0.00;0.62;0.00;0.00;0.62;3.10;2.77;;;25.40;30.90;;;;;;2250222;61;20713;-62
2021/09/21 03:29:37;0.00;0.00;0.62;0.00;0.00;0.62;2.70;2.33;;;25.40;30.90;;;;;;2249580;61;20462;-61
2021/09/21 03:32:25;0.00;0.00;0.62;0.00;0.00;0.62;2.87;2.40;;;25.40;30.90;;;;;;2249696;61;20364;-62
2021/09/21 03:35:10;0.00;0.00;0.62;0.00;0.00;0.62;3.00;2.50;;;25.40;30.90;;;;;;2249684;61;20388;-62
2021/09/21 03:37:56;0.00;0.00;0.62;0.00;0.00;0.62;2.90;2.60;;;25.40;30.90;;;;;;2249910;61;20388;-62
2021/09/21 03:40:41;0.00;0.00;0.62;0.00;0.00;0.62;3.00;2.70;;;25.40;30.90;;;;;;2249619;61;20452;-61
2021/09/21 03:43:25;0.00;0.00;0.62;0.00;0.00;0.62;2.80;2.53;;;25.40;30.90;;;;;;2249756;61;20360;-62
2021/09/21 03:46:10;0.00;0.00;0.62;0.00;0.00;0.62;2.60;2.17;;;25.40;31.00;;;;;;2249930;61;20436;-62
2021/09/21 03:48:56;0.00;0.00;0.62;0.00;0.00;0.62;3.60;2.90;;;25.30;30.90;;;;;;2250078;61;20624;-62
2021/09/21 03:51:41;0.00;0.00;0.62;0.00;0.00;0.62;3.53;2.87;;;25.30;30.90;;;;;;2249592;61;20786;-63
2021/09/21 03:54:27;0.00;0.00;0.62;0.00;0.00;0.62;2.60;2.40;;;25.30;30.90;;;;;;2249479;61;20485;-61
2021/09/21 03:57:11;0.00;0.00;0.62;0.00;0.00;0.62;2.77;2.50;;;25.30;31.00;;;;;;2249687;61;20396;-62
2021/09/21 03:59:55;0.00;0.00;0.62;0.00;0.00;0.62;3.70;3.00;;;25.30;30.90;;;;;;2249829;61;20408;-62
2021/09/21 04:02:40;0.00;0.00;0.62;0.00;0.00;0.62;4.03;2.57;;;25.20;30.80;;;;;;2249573;61;20349;-62
2021/09/21 04:05:25;0.00;0.00;0.62;0.00;0.00;0.62;2.53;2.33;;;25.20;30.90;;;;;;2249694;61;20384;-63
2021/09/21 04:08:09;0.00;0.00;0.62;0.00;0.00;0.62;3.87;2.53;;;25.20;30.90;;;;;;2249889;61;20728;-62
2021/09/21 04:10:55;0.00;0.00;0.62;0.00;0.00;0.62;3.87;2.40;;;25.20;30.90;;;;;;2249537;61;20364;-62
2021/09/21 04:13:40;0.00;0.00;0.62;0.00;0.00;0.62;2.33;2.13;;;25.20;30.90;;;;;;2249699;61;20365;-61
2021/09/21 04:16:24;0.00;0.00;0.62;0.00;0.00;0.62;3.30;2.90;;;25.20;30.90;;;;;;2249019;61;20496;-62
2021/09/21 04:19:09;0.00;0.00;0.62;0.00;0.00;0.62;3.30;2.70;;;25.20;30.90;;;;;;2250056;61;20591;-62
2021/09/21 04:21:53;0.00;0.00;0.62;0.00;0.00;0.62;3.27;2.97;;;25.20;30.90;;;;;;2249822;61;20642;-63
2021/09/21 04:24:38;0.00;0.00;0.62;0.00;0.00;0.62;3.57;3.27;;;25.20;30.90;;;;;;2249275;61;20777;-62
2021/09/21 04:27:24;0.00;0.00;0.62;0.00;0.00;0.62;3.00;2.73;;;25.20;30.80;;;;;;2249751;61;20392;-62
2021/09/21 04:30:12;0.00;0.00;0.62;0.00;0.00;0.62;3.00;2.67;;;25.10;30.80;;;;;;2249726;61;20408;-62
2021/09/21 04:32:57;0.00;0.00;0.62;0.00;0.00;0.62;3.37;2.80;;;25.10;30.80;;;;;;2249395;61;20445;-62
2021/09/21 04:35:42;0.00;0.00;0.62;0.00;0.00;0.62;3.27;2.20;;;25.10;30.70;;;;;;2249801;61;20604;-62
2021/09/21 04:38:26;0.00;0.00;0.62;0.00;0.00;0.62;3.23;2.90;;;25.10;30.70;;;;;;2249104;61;20412;-61
2021/09/21 04:41:11;0.00;0.00;0.62;0.00;0.00;0.62;2.80;2.50;;;25.10;30.80;;;;;;2250025;61;20372;-61
2021/09/21 04:43:59;0.00;0.00;0.62;0.00;0.00;0.62;3.47;2.50;;;25.10;30.80;;;;;;2249672;61;20379;-62
2021/09/21 04:46:43;0.00;0.00;0.62;0.00;0.00;0.62;2.80;2.50;;;25.10;30.80;;;;;;2249340;61;20388;-61
2021/09/21 04:49:28;0.00;0.00;0.62;0.00;0.00;0.62;3.10;2.63;;;25.10;30.80;;;;;;2249662;61;20360;-63
2021/09/21 04:52:14;0.00;0.00;0.62;0.00;0.00;0.62;3.00;2.70;;;25.10;30.90;;;;;;2249574;61;20369;-61
2021/09/21 04:54:59;0.00;0.00;0.62;0.00;0.00;0.62;3.30;2.70;;;25.00;30.80;;;;;;2249281;61;20800;-61
2021/09/21 04:57:43;0.00;0.00;0.62;0.00;0.00;0.62;3.30;2.87;;;25.00;30.80;;;;;;2249580;61;20432;-62
2021/09/21 05:00:29;0.00;0.00;0.62;0.00;0.00;0.62;3.87;3.00;;;25.00;30.80;;;;;;2249411;61;20477;-62
2021/09/21 05:03:13;0.00;0.00;0.62;0.00;0.00;0.62;3.13;2.50;;;25.00;30.80;;;;;;2249854;61;20369;-62
2021/09/21 05:05:58;0.00;0.00;0.62;0.00;0.00;0.62;3.10;2.50;;;25.00;30.80;;;;;;2249161;61;20384;-62
2021/09/21 05:08:43;0.00;0.00;0.62;0.00;0.00;0.62;3.30;2.63;;;25.00;30.80;;;;;;2249379;61;20361;-61
2021/09/21 05:11:28;0.00;0.00;0.62;0.00;0.00;0.62;3.40;2.90;;;25.00;30.80;;;;;;2249595;61;20748;-61
2021/09/21 05:14:13;0.00;0.00;0.62;0.00;0.00;0.62;3.33;2.60;;;25.00;30.80;;;;;;2249360;61;20376;-62
2021/09/21 05:16:59;0.00;0.00;0.62;0.00;0.00;0.62;3.40;3.10;;;25.00;30.90;;;;;;2249285;61;20428;-61
2021/09/21 05:19:44;0.00;0.00;0.62;0.00;0.00;0.62;2.70;2.40;;;25.00;30.90;;;;;;2249506;61;20481;-62
2021/09/21 05:22:29;0.00;0.00;0.62;0.00;0.00;0.62;2.90;2.60;;;25.00;30.90;;;;;;2249612;61;20403;-61
2021/09/21 05:25:13;0.00;0.00;0.62;0.00;0.00;0.62;3.07;2.73;;;24.90;30.90;;;;;;2249824;61;20605;-62
2021/09/21 05:27:58;0.00;0.00;0.62;0.00;0.00;0.62;3.90;2.77;;;24.90;30.80;;;;;;2249264;61;20396;-62
2021/09/21 05:30:42;0.00;0.00;0.62;0.00;0.00;0.62;2.80;2.27;;;24.90;30.80;;;;;;2249259;61;20487;-62
2021/09/21 05:33:28;0.00;0.00;0.62;0.00;0.00;0.62;3.03;2.50;;;24.90;30.90;;;;;;2249356;61;20356;-63
2021/09/21 05:36:13;0.00;0.00;0.62;0.00;0.00;0.62;4.10;2.93;;;24.90;30.90;;;;;;2249425;61;20741;-61
2021/09/21 05:38:57;0.00;0.00;0.62;0.00;0.00;0.62;2.80;2.60;;;24.90;30.90;;;;;;2249206;61;20368;-63
2021/09/21 05:41:43;0.00;0.00;0.62;0.00;0.00;0.62;2.80;2.50;;;24.90;30.90;;;;;;2249499;61;20361;-61
2021/09/21 05:44:28;0.00;0.00;0.62;0.00;0.00;0.62;3.70;2.60;;;24.90;30.90;;;;;;2249010;61;20353;-61
2021/09/21 05:47:12;0.00;0.00;0.62;0.00;0.00;0.62;2.50;2.30;;;24.90;30.90;;;;;;2249510;61;20432;-63
2021/09/21 05:49:58;0.00;0.00;0.62;0.00;0.00;0.62;4.00;3.17;;;24.90;30.90;;;;;;2249430;61;20360;-60
2021/09/21 05:52:45;0.00;0.00;0.62;0.00;0.00;0.62;2.73;2.53;;;24.90;30.90;;;;;;2249173;61;20361;-60
2021/09/21 05:55:29;0.00;0.00;0.62;0.00;0.00;0.62;3.40;3.10;;;24.90;31.00;;;;;;2249455;61;20460;-63
2021/09/21 05:58:14;0.00;0.00;0.62;0.00;0.00;0.62;3.33;3.00;;;24.80;30.90;;;;;;2249336;61;20419;-62
2021/09/21 06:00:59;0.00;0.00;0.62;0.00;0.00;0.62;3.03;2.73;;;24.80;30.90;;;;;;2249199;61;20373;-62
2021/09/21 06:03:44;0.00;0.00;0.62;0.00;0.00;0.62;3.13;2.80;;;24.80;30.90;;;;;;2249452;61;20404;-62
2021/09/21 06:06:29;0.00;0.00;0.62;0.00;0.00;0.62;3.30;3.00;;;24.80;30.90;;;;;;2249551;61;20384;-63
2021/09/21 06:09:14;0.00;0.00;0.62;0.00;0.00;0.62;2.93;2.60;;;24.80;30.90;;;;;;2249281;61;20369;-62
2021/09/21 06:11:59;0.00;0.00;0.62;0.00;0.00;0.62;4.00;2.37;;;24.80;30.90;;;;;;2249437;61;20390;-62
2021/09/21 06:14:43;0.00;0.00;0.62;0.00;0.00;0.62;3.40;2.83;;;24.80;30.90;;;;;;2248871;61;20629;-63
2021/09/21 06:17:27;0.00;0.00;0.62;0.00;0.00;0.62;4.17;3.20;;;24.80;31.00;;;;;;2249779;61;20573;-63
2021/09/21 06:20:14;0.00;0.00;0.62;0.00;0.00;0.62;3.30;2.77;;;24.80;31.00;;;;;;2249366;61;20440;-63
2021/09/21 06:23:00;0.00;0.00;0.62;0.00;0.00;0.62;3.87;3.20;;;24.80;31.00;;;;;;2248972;61;20357;-62
2021/09/21 06:25:45;0.00;0.00;0.62;0.00;0.00;0.62;3.10;2.80;;;24.70;30.90;;;;;;2249410;61;20381;-61
2021/09/21 06:28:29;0.00;0.00;0.62;0.00;0.00;0.62;3.40;3.00;;;24.70;31.00;;;;;;2249435;61;20581;-62
2021/09/21 06:31:14;0.00;0.00;0.62;0.00;0.00;0.62;3.20;2.90;;;24.70;31.00;;;;;;2249180;61;20364;-63
2021/09/21 06:33:58;0.00;0.00;0.62;0.00;0.00;0.62;2.90;2.23;;;24.70;31.10;;;;;;2249359;61;20393;-62
2021/09/21 06:36:43;0.00;0.00;0.62;0.00;0.00;0.62;3.10;2.80;;;24.70;31.10;;;;;;2249207;61;20760;-61
2021/09/21 06:39:29;0.00;0.00;0.62;0.00;0.00;0.62;3.57;2.83;;;24.70;31.10;;;;;;2249739;61;20372;-63
2021/09/21 06:42:13;0.00;0.00;0.62;0.00;0.00;0.62;3.73;2.70;;;24.70;31.20;;;;;;2249365;61;20377;-62
2021/09/21 06:44:58;0.00;0.00;0.62;0.00;0.00;0.62;3.70;2.97;;;24.70;31.20;;;;;;2249181;61;20416;-61
2021/09/21 06:47:43;0.00;0.00;0.62;0.00;0.00;0.62;3.37;2.80;;;24.70;31.20;;;;;;2250083;61;20384;-62
2021/09/21 06:50:28;0.00;0.00;0.62;0.00;0.00;0.62;3.67;2.43;;;24.70;31.20;;;;;;2250018;61;20364;-64
2021/09/21 06:53:13;0.00;0.00;0.62;0.00;0.00;0.62;2.83;2.43;;;24.70;31.20;;;;;;2249904;61;20572;-62
2021/09/21 06:55:59;0.00;0.00;0.62;0.00;0.00;0.62;3.40;2.73;;;24.70;31.20;;;;;;2250108;61;20388;-63
2021/09/21 06:58:43;0.00;0.00;0.62;0.00;0.00;0.62;2.50;2.17;;;24.70;31.30;;;;;;2250013;61;20765;-63
2021/09/21 07:01:29;0.00;0.00;0.62;0.00;0.00;0.62;4.37;3.60;;;24.70;31.30;;;;;;2250362;61;20626;-62
2021/09/21 07:04:14;0.00;0.00;0.62;0.00;0.00;0.62;3.10;2.63;;;24.80;31.40;;;;;;2249601;61;20393;-62
2021/09/21 07:06:58;0.00;0.00;0.62;0.00;0.00;0.62;2.83;2.47;;;24.70;31.30;;;;;;2249783;61;20357;-61
2021/09/21 07:09:43;0.00;0.00;0.62;0.00;0.00;0.62;3.27;2.90;;;24.80;32.00;;;;;;2250080;61;20376;-61
2021/09/21 07:12:29;0.00;0.00;0.62;0.00;0.00;0.62;4.70;3.50;;;24.70;31.30;;;;;;2249944;61;20373;-59
2021/09/21 07:15:14;0.00;0.00;0.62;0.00;0.00;0.62;3.60;2.90;;;24.80;31.30;;;;;;2249677;61;20380;-64
2021/09/21 07:18:00;0.00;0.00;0.62;0.00;0.00;0.62;3.20;2.77;;;24.80;31.30;;;;;;2249975;61;20435;-60
2021/09/21 07:20:44;0.00;0.00;0.62;0.00;0.00;0.62;4.83;2.80;;;24.80;31.30;;;;;;2249998;61;20644;-62
2021/09/21 07:23:29;0.00;0.00;0.62;0.00;0.00;0.62;3.37;2.77;;;24.80;31.30;;;;;;2249925;61;20641;-60
2021/09/21 07:26:14;0.00;0.00;0.62;0.00;0.00;0.62;3.90;3.50;;;24.80;31.30;;;;;;2249804;61;20452;-61
2021/09/21 07:29:00;0.00;0.00;0.62;0.00;0.00;0.62;3.17;2.87;;;24.70;31.20;;;;;;2249764;61;20364;-60
2021/09/21 07:31:44;0.00;0.00;0.62;0.00;0.00;0.62;3.33;3.03;;;24.80;31.20;;;;;;2249978;61;20364;-60
2021/09/21 07:34:29;0.00;0.00;0.62;0.00;0.00;0.62;3.70;3.10;;;24.70;31.00;;;;;;2250020;61;20361;-63
2021/09/21 07:37:14;0.00;0.00;0.62;0.00;0.00;0.62;3.30;3.00;;;24.70;31.00;;;;;;2249684;61;20768;-60
2021/09/21 07:39:58;0.00;0.00;0.62;0.00;0.00;0.62;3.73;2.60;;;24.80;31.20;;;;;;2249964;61;20396;-63
2021/09/21 07:42:43;0.00;0.00;0.62;0.00;0.00;0.62;2.93;2.63;;;24.70;31.00;;;;;;2249998;61;20384;-62
2021/09/21 07:45:29;0.00;0.00;0.62;0.00;0.00;0.62;5.40;2.77;;;24.70;31.10;;;;;;2249823;61;20853;-63
2021/09/21 07:48:18;0.00;0.00;0.62;0.00;0.00;0.62;3.33;3.03;;;24.70;31.10;;;;;;2249886;61;20361;-63
2021/09/21 07:51:02;0.00;0.00;0.62;0.00;0.00;0.62;3.43;3.13;;;24.70;31.10;;;;;;2249606;61;20392;-61
2021/09/21 07:53:47;0.00;0.00;0.62;0.00;0.00;0.62;2.93;2.63;;;24.70;31.10;;;;;;2249976;61;20392;-61
2021/09/21 07:56:32;0.00;0.00;0.62;0.00;0.00;0.62;3.47;3.00;;;24.70;31.10;;;;;;2249731;61;20765;-61
2021/09/21 07:59:17;0.00;0.00;0.62;0.00;0.00;0.62;3.40;2.90;;;24.70;31.10;;;;;;2249632;61;20580;-64
2021/09/21 08:02:05;0.00;0.00;0.62;0.00;0.00;0.62;7.53;3.10;;;24.70;31.20;;;;;;2249921;61;20411;-63
2021/09/21 08:04:50;0.00;0.00;0.62;0.00;0.00;0.62;4.60;2.93;;;24.70;31.90;;;;;;2249747;61;20416;-59
2021/09/21 08:07:35;0.00;0.00;0.62;0.00;0.00;0.62;3.00;2.47;;;24.80;31.30;;;;;;2249831;61;20632;-60
2021/09/21 08:10:20;0.00;0.00;0.62;0.00;0.00;0.62;4.23;2.30;;;24.80;31.30;;;;;;2249939;61;20364;-60
2021/09/21 08:13:05;0.00;0.00;0.62;0.00;0.00;0.62;2.63;2.23;;;24.80;31.30;;;;;;2249557;61;20441;-63
2021/09/21 08:15:50;0.00;0.00;0.62;0.00;0.00;0.62;3.87;3.47;;;24.80;31.30;;;;;;2250042;61;20760;-61
2021/09/21 08:18:36;0.00;0.00;0.62;0.00;0.00;0.62;4.20;2.43;;;24.80;31.30;;;;;;2249728;61;20432;-63
2021/09/21 08:21:21;0.00;0.00;0.62;0.00;0.00;0.62;2.73;2.40;;;24.80;31.30;;;;;;2249664;61;20489;-62
2021/09/21 08:24:06;0.00;0.00;0.62;0.00;0.00;0.62;5.80;2.40;;;24.80;31.30;;;;;;2249854;61;20353;-65
2021/09/21 08:26:51;0.00;0.00;0.62;0.00;0.00;0.62;6.30;2.73;;;24.80;31.30;;;;;;2249697;61;20416;-63
2021/09/21 08:29:35;0.00;0.00;0.62;0.00;0.00;0.62;2.47;2.20;;;24.80;31.30;;;;;;2249671;61;20438;-63
2021/09/21 08:32:20;0.00;0.00;0.62;0.00;0.00;0.62;3.37;2.30;;;24.80;31.30;;;;;;2249901;61;20669;-61
2021/09/21 08:35:08;0.00;0.00;0.62;0.00;0.00;0.62;5.43;2.20;;;24.80;31.30;;;;;;2249515;61;20384;-63
2021/09/21 08:37:54;0.00;0.00;0.62;0.00;0.00;0.62;4.17;2.43;;;24.90;31.40;;;;;;2250148;61;20375;-62
2021/09/21 08:40:39;0.00;0.00;0.62;0.00;0.00;0.62;2.83;1.97;;;24.90;31.40;;;;;;2249614;61;20364;-61
2021/09/21 08:43:24;0.00;0.00;0.62;0.00;0.00;0.62;3.27;2.67;;;24.90;31.40;;;;;;2249523;61;20360;-63
2021/09/21 08:46:09;0.00;0.00;0.62;0.00;0.00;0.62;3.30;2.37;;;24.90;31.40;;;;;;2249812;61;20635;-62
2021/09/21 08:48:54;0.00;0.00;0.62;0.00;0.00;0.62;3.10;1.80;;;24.90;31.40;;;;;;2249724;61;20385;-62
2021/09/21 08:51:41;0.00;0.00;0.62;0.00;0.00;0.62;3.20;2.27;;;24.90;31.40;;;;;;2251808;61;20392;-61
2021/09/21 08:54:26;0.00;0.00;0.62;0.00;0.00;0.62;2.57;2.17;;;24.90;31.40;;;;;;2249715;61;20452;-62
2021/09/21 08:57:11;0.00;0.00;0.62;0.00;0.00;0.62;5.03;2.57;;;24.90;31.40;;;;;;2249537;61;20744;-62
2021/09/21 08:59:56;0.00;0.00;0.62;0.00;0.00;0.62;2.30;1.90;;;24.90;31.40;;;;;;2249975;61;20407;-62
2021/09/21 09:02:41;0.00;0.00;0.62;0.00;0.00;0.62;3.37;2.43;;;24.90;31.40;;;;;;2249499;61;20400;-62
2021/09/21 09:05:25;0.00;0.00;0.62;0.00;0.00;0.62;3.30;2.43;;;24.90;31.40;;;;;;2249384;61;20385;-60
2021/09/21 09:08:12;0.00;0.00;0.62;0.00;0.00;0.62;2.47;1.93;;;24.90;31.40;;;;;;2249750;61;20380;-63
2021/09/21 09:11:10;0.00;0.00;0.62;0.00;0.00;0.62;2.33;2.00;;;25.00;31.50;;;;;;2249636;61;20376;-62
2021/09/21 09:13:57;0.00;0.00;0.62;0.00;0.00;0.62;2.90;2.13;;;25.00;31.40;;;;;;2249358;61;20361;-63
2021/09/21 09:16:45;0.00;0.00;0.62;0.00;0.00;0.62;2.73;2.00;;;25.00;31.50;;;;;;2249596;61;20469;-64
2021/09/21 09:19:32;0.00;0.00;0.62;0.00;0.00;0.62;2.77;2.43;;;25.00;31.50;;;;;;2249365;61;20721;-64
2021/09/21 09:22:22;0.00;0.00;0.62;0.00;0.00;0.62;2.67;2.40;;;25.00;31.40;;;;;;2249991;61;20361;-62
2021/09/21 09:25:09;0.00;0.00;0.62;0.00;0.00;0.62;2.80;2.30;;;25.00;31.40;;;;;;2249457;61;20452;-64
2021/09/21 09:27:54;0.00;0.00;0.62;0.00;0.00;0.62;2.23;2.00;;;25.00;31.40;;;;;;2249515;61;20604;-62
2021/09/21 09:30:39;0.00;0.00;0.62;0.00;0.00;0.62;2.80;2.23;;;25.00;31.40;;;;;;2249644;61;20408;-63
2021/09/21 09:33:24;0.00;0.00;0.62;0.00;0.00;0.62;3.20;2.40;;;25.00;31.40;;;;;;2249518;61;20630;-61
2021/09/21 09:36:09;0.00;0.00;0.62;0.00;0.00;0.62;2.47;1.73;;;25.00;31.40;;;;;;2249430;61;20428;-64
2021/09/21 09:39:00;0.00;0.00;0.62;0.00;0.00;0.62;2.40;2.00;;;25.00;31.40;;;;;;2251863;61;20582;-63
2021/09/21 09:41:48;0.00;0.00;0.62;0.00;0.00;0.62;3.20;1.73;;;25.00;31.40;;;;;;2249354;61;20400;-63
2021/09/21 09:44:33;0.00;0.00;0.62;0.00;0.00;0.62;2.70;2.07;;;25.00;31.40;;;;;;2249853;61;20514;-63
2021/09/21 09:47:17;0.00;0.00;0.62;0.00;0.00;0.62;3.17;2.17;;;25.00;31.40;;;;;;2249542;61;20348;-63
2021/09/21 09:50:10;0.00;0.00;0.62;0.00;0.00;0.62;2.90;2.13;;;25.00;31.40;;;;;;2249488;61;20400;-62
2021/09/21 09:53:04;0.00;0.00;0.62;0.00;0.00;0.62;2.17;1.97;;;25.00;31.40;;;;;;2249544;61;20433;-62
2021/09/21 09:55:51;0.00;0.00;0.62;0.00;0.00;0.62;2.60;2.23;;;25.00;31.40;;;;;;2249473;61;20453;-62
2021/09/21 09:58:37;0.00;0.00;0.62;0.00;0.00;0.62;3.43;2.03;;;25.10;31.50;;;;;;2249398;61;20428;-63
2021/09/21 10:01:22;0.00;0.00;0.62;0.00;0.00;0.62;2.10;1.90;;;25.10;31.50;;;;;;2249580;61;20361;-63
2021/09/21 10:04:07;0.00;0.00;0.62;0.00;0.00;0.62;2.50;2.17;;;25.00;31.40;;;;;;2249351;61;20587;-62
2021/09/21 10:06:52;0.00;0.00;0.62;0.00;0.00;0.62;2.97;1.83;;;25.10;31.50;;;;;;2249908;61;20633;-63
2021/09/21 10:09:37;0.00;0.00;0.62;0.00;0.00;0.62;2.40;1.70;;;25.10;31.40;;;;;;2249480;61;20364;-63
2021/09/21 10:12:22;0.00;0.00;0.62;0.00;0.00;0.62;2.50;1.97;;;25.10;31.50;;;;;;2249487;61;20393;-62
2021/09/21 10:15:10;0.00;0.00;0.62;0.00;0.00;0.62;2.67;2.17;;;25.10;31.40;;;;;;2249387;61;20392;-63
2021/09/21 10:17:58;0.00;0.00;0.62;0.00;0.00;0.62;2.20;1.90;;;25.00;31.40;;;;;;2249503;61;20388;-63
2021/09/21 10:20:45;0.00;0.00;0.62;0.00;0.00;0.62;2.67;1.90;;;25.10;31.50;;;;;;2249735;61;20399;-63
2021/09/21 10:23:35;0.00;0.00;0.62;0.00;0.00;0.62;2.53;1.83;;;25.10;31.40;;;;;;2250039;61;20408;-63
2021/09/21 10:26:21;0.00;0.00;0.62;0.00;0.00;0.62;2.20;2.00;;;25.10;31.50;;;;;;2249974;61;20653;-62
2021/09/21 10:29:06;0.00;0.00;0.62;0.00;0.00;0.62;2.50;2.03;;;25.10;31.50;;;;;;2250388;61;20423;-61
2021/09/21 10:31:56;0.00;0.00;0.62;0.00;0.00;0.62;3.27;2.30;;;25.10;31.40;;;;;;2250163;61;20361;-61
2021/09/21 10:34:44;0.00;0.00;0.62;0.00;0.00;0.62;2.47;2.10;;;25.10;31.50;;;;;;2249892;61;20365;-63
2021/09/21 10:37:31;0.00;0.00;0.62;0.00;0.00;0.62;2.63;1.87;;;25.10;31.40;;;;;;2250055;61;20756;-61
2021/09/21 10:40:16;0.00;0.00;0.62;0.00;0.00;0.62;2.37;1.93;;;25.10;31.40;;;;;;2250144;61;20360;-62
2021/09/21 10:43:00;0.00;0.00;0.62;0.00;0.00;0.62;2.57;2.03;;;25.10;31.40;;;;;;2249868;61;20412;-63
2021/09/21 10:45:45;0.00;0.00;0.62;0.00;0.00;0.62;3.00;2.47;;;25.10;31.40;;;;;;2250123;61;20380;-63
2021/09/21 10:48:36;0.00;0.00;0.62;0.00;0.00;0.62;2.33;1.90;;;25.10;32.10;;;;;;2249991;61;20364;-62
2021/09/21 10:51:23;0.00;0.00;0.62;0.00;0.00;0.62;2.30;2.00;;;25.10;31.40;;;;;;2250257;61;20701;-62
2021/09/21 10:54:08;0.00;0.00;0.62;0.00;0.00;0.62;2.40;1.93;;;25.20;31.40;;;;;;2250087;61;20577;-63
2021/09/21 10:56:53;0.00;0.00;0.62;0.00;0.00;0.62;3.00;2.13;;;25.20;31.40;;;;;;2250034;61;20384;-63
2021/09/21 10:59:40;0.00;0.00;0.62;0.00;0.00;0.62;2.63;1.43;;;25.20;31.50;;;;;;2250070;61;20368;-63
2021/09/21 11:02:30;0.00;0.00;0.62;0.00;0.00;0.62;2.47;2.20;;;25.10;31.40;;;;;;2250153;61;20352;-62
2021/09/21 11:05:19;0.00;0.00;0.62;0.00;0.00;0.62;2.93;2.20;;;25.20;31.40;;;;;;2249762;61;20388;-63